createdAt,value
2019-02-22T00:02:27.242Z,9.20
2019-02-22T00:04:57.821Z,9.73
2019-02-22T00:07:28.463Z,9.70
2019-02-22T00:10:00.396Z,10.27
2019-02-22T00:12:31.032Z,10.83
2019-02-22T00:15:01.702Z,9.73
2019-02-22T00:17:32.408Z,10.00
2019-02-22T00:20:04.806Z,10.77
2019-02-22T00:22:35.709Z,10.27
2019-02-22T00:25:07.364Z,9.83
2019-02-22T00:30:38.357Z,10.50
2019-02-22T00:33:09.042Z,11.30
2019-02-22T00:35:39.694Z,10.93
2019-02-22T00:38:10.248Z,11.27
2019-02-22T00:40:40.798Z,10.70
2019-02-22T00:43:11.398Z,10.50
2019-02-22T00:45:42.017Z,11.07
2019-02-22T00:48:12.585Z,10.93
2019-02-22T00:50:43.212Z,10.57
2019-02-22T00:53:13.741Z,11.07
2019-02-22T00:55:44.342Z,10.80
2019-02-22T00:58:14.873Z,10.80
2019-02-22T01:00:45.500Z,10.73
2019-02-22T01:03:16.664Z,11.23
2019-02-22T01:05:47.358Z,11.27
2019-02-22T01:08:17.975Z,10.13
2019-02-22T01:10:48.607Z,11.47
2019-02-22T01:13:19.237Z,11.03
2019-02-22T01:15:49.853Z,10.30
2019-02-22T01:18:22.462Z,10.10
2019-02-22T01:20:55.951Z,10.40
2019-02-22T01:23:26.580Z,10.67
2019-02-22T01:25:57.097Z,10.80
2019-02-22T01:28:27.763Z,10.27
2019-02-22T01:30:58.276Z,9.90
2019-02-22T01:33:28.894Z,10.60
2019-02-22T01:35:59.422Z,9.93
2019-02-22T01:38:40.053Z,10.37
2019-02-22T01:41:10.737Z,11.10
2019-02-22T01:43:41.425Z,11.43
2019-02-22T01:46:12.002Z,11.70
2019-02-22T01:48:44.652Z,11.93
2019-02-22T01:51:15.360Z,11.80
2019-02-22T01:53:46.426Z,12.03
2019-02-22T01:56:16.931Z,11.97
2019-02-22T01:58:49.853Z,12.30
2019-02-22T02:01:20.458Z,11.90
2019-02-22T02:03:51.055Z,11.50
2019-02-22T02:06:21.648Z,12.67
2019-02-22T02:08:52.330Z,12.63
2019-02-22T02:11:26.008Z,12.40
2019-02-22T02:13:56.905Z,12.03
2019-02-22T02:16:28.389Z,11.97
2019-02-22T02:18:59.329Z,12.40
2019-02-22T02:21:32.611Z,12.13
2019-02-22T02:24:06.485Z,12.13
2019-02-22T02:26:37.264Z,12.43
2019-02-22T02:29:07.941Z,14.43
2019-02-22T02:31:38.522Z,14.17
2019-02-22T02:34:10.170Z,14.70
2019-02-22T02:36:40.679Z,14.00
2019-02-22T02:39:11.290Z,13.33
2019-02-22T02:41:41.917Z,14.37
2019-02-22T02:44:12.442Z,15.07
2019-02-22T02:46:43.042Z,14.03
2019-02-22T02:49:13.587Z,15.17
2019-02-22T02:51:56.912Z,14.30
2019-02-22T02:54:27.456Z,14.50
2019-02-22T02:56:57.969Z,14.23
2019-02-22T02:59:28.565Z,14.37
2019-02-22T03:01:59.627Z,15.23
2019-02-22T03:04:30.306Z,15.40
2019-02-22T03:07:08.279Z,15.07
2019-02-22T03:09:38.847Z,16.33
2019-02-22T03:12:10.307Z,16.57
2019-02-22T03:14:40.867Z,15.53
2019-02-22T03:17:11.484Z,15.93
2019-02-22T03:19:42.111Z,16.23
2019-02-22T03:22:13.538Z,16.53
2019-02-22T03:24:44.084Z,15.67
2019-02-22T03:27:14.667Z,16.10
2019-02-22T03:29:45.255Z,16.67
2019-02-22T03:32:15.893Z,16.23
2019-02-22T03:34:46.468Z,16.40
2019-02-22T03:37:17.469Z,15.90
2019-02-22T03:39:48.102Z,16.57
2019-02-22T03:42:18.729Z,16.33
2019-02-22T03:44:49.594Z,17.47
2019-02-22T03:47:20.186Z,17.93
2019-02-22T03:49:50.747Z,15.93
2019-02-22T03:52:45.725Z,16.37
2019-02-22T03:55:16.363Z,15.33
2019-02-22T03:57:46.904Z,14.23
2019-02-22T04:00:17.859Z,13.70
2019-02-22T04:02:48.475Z,11.97
2019-02-22T04:05:19.843Z,11.57
2019-02-22T04:07:50.506Z,11.23
2019-02-22T04:10:33.732Z,9.93
2019-02-22T04:13:04.400Z,11.00
2019-02-22T04:15:37.263Z,10.87
2019-02-22T04:18:07.912Z,10.33
2019-02-22T04:20:38.449Z,8.90
2019-02-22T04:23:09.888Z,7.67
2019-02-22T04:25:42.505Z,8.20
2019-02-22T04:28:13.058Z,8.33
2019-02-22T04:30:43.574Z,8.30
2019-02-22T04:33:14.185Z,8.10
2019-02-22T04:35:47.104Z,8.10
2019-02-22T04:38:17.709Z,7.30
2019-02-22T04:40:49.703Z,7.40
2019-02-22T04:43:20.291Z,8.00
2019-02-22T04:45:50.829Z,7.03
2019-02-22T04:48:21.411Z,7.50
2019-02-22T04:50:52.114Z,10.07
2019-02-22T04:53:22.627Z,10.77
2019-02-22T04:55:56.471Z,11.53
2019-02-22T04:58:27.020Z,13.03
2019-02-22T05:00:57.565Z,11.80
2019-02-22T05:03:28.180Z,13.23
2019-02-22T05:05:59.508Z,14.13
2019-02-22T05:08:30.178Z,13.93
2019-02-22T05:11:00.778Z,12.63
2019-02-22T05:13:31.380Z,13.10
2019-02-22T05:16:02.011Z,12.80
2019-02-22T05:18:32.447Z,13.73
2019-02-22T05:21:02.989Z,13.23
2019-02-22T05:23:33.743Z,14.53
2019-02-22T05:26:04.978Z,14.13
2019-02-22T05:28:35.461Z,14.43
2019-02-22T05:31:06.103Z,15.17
2019-02-22T05:33:42.763Z,15.67
2019-02-22T05:36:13.369Z,14.43
2019-02-22T05:38:44.074Z,14.33
2019-02-22T05:41:14.868Z,14.23
2019-02-22T05:43:45.583Z,15.07
2019-02-22T05:46:16.275Z,14.80
2019-02-22T05:48:47.673Z,14.53
2019-02-22T05:51:19.792Z,15.50
2019-02-22T05:53:50.414Z,13.73
2019-02-22T05:56:21.111Z,14.20
2019-02-22T05:58:51.667Z,12.13
2019-02-22T06:01:22.485Z,12.97
2019-02-22T06:03:53.086Z,11.90
2019-02-22T06:06:24.234Z,11.03
2019-02-22T06:08:54.769Z,10.67
2019-02-22T06:11:28.658Z,10.97
2019-02-22T06:13:59.189Z,10.80
2019-02-22T06:16:29.785Z,11.13
2019-02-22T06:19:00.796Z,10.27
2019-02-22T06:21:31.322Z,9.67
2019-02-22T06:24:03.074Z,9.57
2019-02-22T06:26:33.752Z,10.10
2019-02-22T06:29:04.250Z,9.73
2019-02-22T06:31:35.776Z,9.80
2019-02-22T06:34:06.357Z,10.33
2019-02-22T06:39:37.391Z,10.57
2019-02-22T06:42:08.007Z,10.33
2019-02-22T06:44:41.561Z,11.20
2019-02-22T06:47:12.119Z,9.87
2019-02-22T06:49:44.537Z,10.53
2019-02-22T06:52:15.043Z,10.93
2019-02-22T06:54:45.627Z,10.77
2019-02-22T06:57:16.070Z,9.90
2019-02-22T06:59:46.607Z,11.50
2019-02-22T07:02:17.220Z,12.50
2019-02-22T07:04:48.522Z,12.40
2019-02-22T07:07:19.172Z,15.77
2019-02-22T07:09:52.509Z,15.43
2019-02-22T07:12:32.257Z,17.20
2019-02-22T07:15:02.962Z,13.70
2019-02-22T07:17:33.572Z,14.47
2019-02-22T07:20:06.425Z,12.97
2019-02-22T07:22:36.995Z,12.43
2019-02-22T07:25:11.857Z,11.57
2019-02-22T07:27:43.239Z,7.20
2019-02-22T07:30:14.816Z,9.07
2019-02-22T07:32:45.468Z,8.83
2019-02-22T07:35:16.121Z,8.13
2019-02-22T07:37:47.990Z,8.17
2019-02-22T07:40:20.028Z,7.57
2019-02-22T07:42:50.880Z,6.43
2019-02-22T07:45:21.469Z,6.30
2019-02-22T07:47:52.055Z,5.20
2019-02-22T07:50:22.665Z,5.00
2019-02-22T07:52:54.484Z,4.50
2019-02-22T07:55:27.467Z,3.47
2019-02-22T07:57:57.917Z,3.47
2019-02-22T08:00:29.187Z,2.63
2019-02-22T08:03:01.116Z,2.57
2019-02-22T08:05:31.710Z,2.97
2019-02-22T08:08:02.402Z,3.10
2019-02-22T08:10:32.942Z,2.07
2019-02-22T08:13:03.634Z,1.40
2019-02-22T08:15:35.409Z,1.20
2019-02-22T08:18:06.225Z,1.00
2019-02-22T08:20:36.840Z,1.07
2019-02-22T08:23:07.559Z,1.10
2019-02-22T08:25:39.114Z,1.70
2019-02-22T08:28:09.757Z,1.40
2019-02-22T08:30:40.657Z,1.70
2019-02-22T08:33:11.299Z,1.70
2019-02-22T08:35:41.817Z,1.70
2019-02-22T08:38:12.413Z,2.00
2019-02-22T08:40:43.851Z,1.50
2019-02-22T08:43:14.406Z,1.87
2019-02-22T08:45:44.996Z,2.23
2019-02-22T08:48:16.003Z,2.20
2019-02-22T08:50:46.530Z,1.57
2019-02-22T08:53:17.168Z,1.23
2019-02-22T08:55:47.726Z,1.53
2019-02-22T08:58:18.294Z,1.60
2019-02-22T09:00:49.053Z,1.40
2019-02-22T09:03:19.710Z,1.27
2019-02-22T09:05:50.263Z,0.87
2019-02-22T09:08:21.082Z,1.40
2019-02-22T09:11:00.178Z,1.37
2019-02-22T09:13:24.075Z,1.20
2019-02-22T09:16:02.558Z,1.77
2019-02-22T09:18:33.588Z,0.83
2019-02-22T09:21:04.157Z,1.43
2019-02-22T09:23:34.713Z,0.87
2019-02-22T09:26:06.140Z,1.07
2019-02-22T09:28:37.238Z,0.90
2019-02-22T09:31:07.859Z,0.83
2019-02-22T09:33:38.365Z,1.27
2019-02-22T09:36:08.955Z,1.07
2019-02-22T09:38:39.545Z,0.77
2019-02-22T09:41:10.548Z,1.03
2019-02-22T09:43:41.170Z,1.17
2019-02-22T09:46:11.767Z,1.37
2019-02-22T09:48:42.715Z,0.90
2019-02-22T09:51:13.368Z,0.97
2019-02-22T09:53:43.948Z,0.73
2019-02-22T09:56:15.314Z,0.77
2019-02-22T09:58:45.997Z,0.80
2019-02-22T10:01:16.524Z,0.87
2019-02-22T10:03:47.146Z,0.73
2019-02-22T10:06:17.824Z,1.67
2019-02-22T10:08:48.438Z,1.20
2019-02-22T10:11:19.072Z,0.80
2019-02-22T10:13:49.698Z,0.87
2019-02-22T10:16:20.400Z,1.20
2019-02-22T10:18:50.939Z,1.00
2019-02-22T10:21:21.540Z,1.07
2019-02-22T10:23:52.224Z,1.03
2019-02-22T10:29:24.112Z,1.03
2019-02-22T10:31:54.705Z,1.00
2019-02-22T10:34:26.856Z,1.10
2019-02-22T10:36:58.936Z,1.20
2019-02-22T10:39:30.474Z,1.17
2019-02-22T10:42:01.335Z,1.10
2019-02-22T10:44:31.908Z,1.30
2019-02-22T10:47:02.584Z,1.33
2019-02-22T10:49:33.150Z,1.03
2019-02-22T10:52:03.762Z,0.87
2019-02-22T10:54:34.382Z,1.30
2019-02-22T10:57:04.949Z,1.17
2019-02-22T10:59:35.562Z,1.50
2019-02-22T11:02:09.352Z,1.37
2019-02-22T11:04:39.858Z,1.27
2019-02-22T11:07:11.980Z,1.60
2019-02-22T11:09:42.497Z,1.20
2019-02-22T11:12:13.115Z,1.27
2019-02-22T11:14:43.688Z,1.33
2019-02-22T11:17:16.944Z,1.60
2019-02-22T11:19:48.232Z,1.73
2019-02-22T11:22:18.763Z,1.30
2019-02-22T11:24:49.367Z,2.03
2019-02-22T11:27:19.984Z,2.00
2019-02-22T11:29:51.766Z,1.90
2019-02-22T11:32:22.464Z,1.20
2019-02-22T11:34:53.070Z,1.77
2019-02-22T11:37:23.780Z,2.10
2019-02-22T11:39:54.289Z,1.67
2019-02-22T11:42:25.138Z,1.80
2019-02-22T11:44:55.837Z,2.30
2019-02-22T11:47:26.421Z,1.73
2019-02-22T11:49:57.125Z,1.63
2019-02-22T11:52:27.732Z,1.97
2019-02-22T11:54:58.344Z,1.93
2019-02-22T11:57:29.299Z,2.00
2019-02-22T12:00:00.351Z,1.67
2019-02-22T12:02:31.119Z,1.97
2019-02-22T12:05:28.572Z,2.00
2019-02-22T12:07:59.355Z,1.50
2019-02-22T12:10:29.971Z,1.93
2019-02-22T12:13:00.651Z,1.80
2019-02-22T12:15:32.282Z,1.60
2019-02-22T12:18:02.868Z,1.50
2019-02-22T12:20:33.459Z,2.00
2019-02-22T12:23:03.989Z,3.03
2019-02-22T12:25:34.610Z,2.20
2019-02-22T12:28:05.292Z,2.73
2019-02-22T12:30:37.954Z,2.60
2019-02-22T12:33:08.827Z,2.73
2019-02-22T12:35:39.433Z,2.70
2019-02-22T12:38:10.041Z,2.57
2019-02-22T12:40:40.560Z,2.93
2019-02-22T12:43:11.141Z,2.83
2019-02-22T12:45:41.748Z,2.03
2019-02-22T12:48:12.276Z,1.50
2019-02-22T12:50:45.185Z,2.30
2019-02-22T12:53:15.743Z,2.03
2019-02-22T12:55:46.332Z,2.03
2019-02-22T12:58:16.862Z,2.00
2019-02-22T13:00:47.464Z,2.10
2019-02-22T13:03:18.049Z,2.00
2019-02-22T13:05:49.002Z,1.67
2019-02-22T13:08:19.686Z,1.73
2019-02-22T13:10:50.219Z,2.37
2019-02-22T13:13:21.928Z,1.97
2019-02-22T13:15:52.567Z,1.93
2019-02-22T13:18:23.182Z,2.63
2019-02-22T13:20:54.145Z,2.10
2019-02-22T13:23:24.764Z,3.27
2019-02-22T13:25:55.349Z,2.43
2019-02-22T13:28:27.505Z,2.70
2019-02-22T13:31:01.035Z,2.33
2019-02-22T13:33:32.100Z,2.60
2019-02-22T13:36:03.676Z,1.80
2019-02-22T13:38:34.286Z,2.63
2019-02-22T13:41:05.040Z,2.43
2019-02-22T13:43:36.736Z,2.20
2019-02-22T13:46:07.319Z,2.30
2019-02-22T13:48:37.963Z,2.70
2019-02-22T13:51:08.859Z,2.90
2019-02-22T13:53:40.926Z,2.53
2019-02-22T13:56:14.297Z,2.40
2019-02-22T13:58:53.986Z,3.40
2019-02-22T14:01:24.533Z,2.90
2019-02-22T14:03:55.120Z,2.67
2019-02-22T14:06:27.721Z,2.70
2019-02-22T14:08:58.964Z,2.40
2019-02-22T14:11:29.548Z,2.53
2019-02-22T14:14:00.194Z,3.10
2019-02-22T14:16:30.848Z,2.80
2019-02-22T14:19:07.112Z,2.67
2019-02-22T14:21:38.043Z,2.77
2019-02-22T14:24:08.765Z,3.07
2019-02-22T14:26:39.373Z,2.43
2019-02-22T14:29:10.044Z,4.40
2019-02-22T14:31:41.435Z,2.93
2019-02-22T14:40:20.062Z,2.80
2019-02-22T14:42:50.747Z,3.07
2019-02-22T14:45:21.360Z,3.07
2019-02-22T14:47:52.297Z,2.47
2019-02-22T14:50:23.690Z,2.87
2019-02-22T14:52:55.646Z,3.30
2019-02-22T14:55:27.248Z,3.47
2019-02-22T14:58:01.042Z,3.13
2019-02-22T15:00:31.897Z,3.17
2019-02-22T15:03:02.591Z,2.57
2019-02-22T15:05:33.179Z,3.00
2019-02-22T15:08:04.652Z,3.10
2019-02-22T15:10:35.608Z,3.87
2019-02-22T15:13:07.231Z,3.03
2019-02-22T15:16:01.808Z,2.83
2019-02-22T15:18:30.154Z,2.83
2019-02-22T15:21:00.882Z,3.13
2019-02-22T15:23:31.637Z,2.87
2019-02-22T15:26:02.230Z,3.37
2019-02-22T15:28:32.850Z,3.40
2019-02-22T15:31:03.848Z,2.43
2019-02-22T15:33:35.320Z,1.63
2019-02-22T15:36:06.841Z,1.67
2019-02-22T15:38:37.407Z,2.10
2019-02-22T15:41:09.970Z,2.20
2019-02-22T15:43:40.591Z,2.40
2019-02-22T15:46:12.500Z,2.63
2019-02-22T15:48:43.384Z,2.47
2019-02-22T15:51:14.163Z,3.30
2019-02-22T15:53:44.693Z,3.53
2019-02-22T15:56:15.361Z,2.40
2019-02-22T15:58:45.986Z,2.40
2019-02-22T16:01:17.608Z,1.90
2019-02-22T16:04:01.985Z,2.70
2019-02-22T16:06:33.550Z,2.63
2019-02-22T16:09:06.021Z,2.30
2019-02-22T16:11:36.631Z,2.30
2019-02-22T16:14:07.890Z,1.90
2019-02-22T16:16:38.503Z,2.27
2019-02-22T16:19:09.114Z,1.90
2019-02-22T16:21:39.650Z,2.67
2019-02-22T16:24:10.631Z,3.10
2019-02-22T16:26:43.455Z,2.37
2019-02-22T16:29:13.999Z,2.27
2019-02-22T16:31:45.458Z,1.57
2019-02-22T16:34:16.927Z,1.97
2019-02-22T16:36:47.578Z,2.00
2019-02-22T16:39:18.357Z,2.57
2019-02-22T16:41:48.888Z,2.30
2019-02-22T16:53:20.808Z,2.17
2019-02-22T16:55:51.332Z,2.10
2019-02-22T16:58:21.998Z,1.17
2019-02-22T17:00:52.894Z,2.20
2019-02-22T17:03:24.617Z,1.80
2019-02-22T17:05:55.282Z,2.17
2019-02-22T17:08:26.804Z,2.20
2019-02-22T17:10:57.455Z,2.20
2019-02-22T17:13:28.115Z,1.77
2019-02-22T17:15:58.683Z,2.90
2019-02-22T17:18:29.328Z,2.50
2019-02-22T17:20:59.870Z,1.73
2019-02-22T17:23:30.478Z,2.70
2019-02-22T17:26:05.822Z,1.60
2019-02-22T17:28:36.461Z,2.57
2019-02-22T17:31:07.221Z,2.40
2019-02-22T17:33:37.775Z,1.80
2019-02-22T17:36:09.256Z,2.50
2019-02-22T17:38:39.861Z,2.50
2019-02-22T17:41:10.506Z,2.27
2019-02-22T17:43:41.021Z,2.13
2019-02-22T17:46:22.632Z,2.43
2019-02-22T17:48:53.722Z,2.43
2019-02-22T17:51:25.717Z,2.93
2019-02-22T17:53:56.187Z,2.53
2019-02-22T17:56:26.794Z,1.83
2019-02-22T17:58:58.877Z,2.50
2019-02-22T18:01:29.550Z,2.20
2019-02-22T18:04:00.159Z,2.33
2019-02-22T18:06:31.507Z,3.47
2019-02-22T18:09:02.105Z,3.37
2019-02-22T18:11:34.161Z,2.60
2019-02-22T18:14:04.776Z,2.00
2019-02-22T18:16:35.315Z,1.90
2019-02-22T18:19:05.834Z,2.37
2019-02-22T18:21:36.470Z,2.10
2019-02-22T18:24:07.069Z,1.90
2019-02-22T18:26:37.849Z,1.47
2019-02-22T18:29:08.459Z,1.87
2019-02-22T18:31:39.004Z,2.07
2019-02-22T18:34:09.585Z,2.10
2019-02-22T18:36:41.686Z,2.53
2019-02-22T18:39:12.480Z,2.53
2019-02-22T18:41:43.097Z,2.17
2019-02-22T18:44:13.701Z,2.57
2019-02-22T18:46:44.321Z,2.87
2019-02-22T18:49:14.916Z,2.60
2019-02-22T18:51:45.623Z,3.03
2019-02-22T18:54:16.589Z,3.40
2019-02-22T18:56:48.575Z,2.07
2019-02-22T18:59:20.088Z,3.57
2019-02-22T19:01:50.723Z,2.40
2019-02-22T19:04:21.687Z,2.60
2019-02-22T19:06:52.508Z,3.13
2019-02-22T19:09:23.315Z,2.00
2019-02-22T19:11:54.063Z,2.87
2019-02-22T19:14:24.655Z,3.27
2019-02-22T19:16:56.478Z,2.20
2019-02-22T19:19:28.134Z,2.60
2019-02-22T19:21:58.866Z,2.40
2019-02-22T19:24:30.169Z,2.20
2019-02-22T19:27:00.866Z,2.80
2019-02-22T19:29:31.394Z,2.23
2019-02-22T19:32:02.005Z,2.47
2019-02-22T19:34:33.916Z,2.63
2019-02-22T19:37:06.140Z,2.63
2019-02-22T19:39:36.837Z,2.63
2019-02-22T19:42:07.636Z,2.67
2019-02-22T19:44:38.143Z,2.70
2019-02-22T19:47:08.762Z,2.77
2019-02-22T19:49:40.070Z,2.30
2019-02-22T19:52:11.557Z,2.67
2019-02-22T19:54:44.238Z,1.63
2019-02-22T19:57:14.485Z,2.33
2019-02-22T19:59:44.999Z,2.93
2019-02-22T20:02:15.908Z,2.17
2019-02-22T20:04:47.045Z,2.70
2019-02-22T20:07:18.233Z,2.20
2019-02-22T20:09:48.759Z,3.03
2019-02-22T20:12:20.976Z,2.70
2019-02-22T20:14:51.598Z,2.20
2019-02-22T20:17:22.244Z,2.10
2019-02-22T20:19:52.831Z,2.53
2019-02-22T20:22:23.525Z,2.50
2019-02-22T20:24:54.178Z,2.23
2019-02-22T20:27:24.737Z,3.30
2019-02-22T20:29:55.350Z,2.73
2019-02-22T20:32:26.892Z,2.07
2019-02-22T20:34:57.518Z,2.33
2019-02-22T20:37:29.059Z,2.40
2019-02-22T20:39:59.675Z,2.50
2019-02-22T20:42:30.554Z,2.90
2019-02-22T20:45:01.590Z,2.67
2019-02-22T20:47:32.212Z,2.30
2019-02-22T20:50:02.818Z,3.13
2019-02-22T20:52:34.599Z,3.03
2019-02-22T20:55:06.388Z,2.60
2019-02-22T21:06:37.851Z,3.17
2019-02-22T21:09:08.772Z,2.33
2019-02-22T21:11:39.422Z,3.10
2019-02-22T21:14:10.081Z,3.47
2019-02-22T21:16:40.848Z,3.53
2019-02-22T21:19:11.460Z,2.57
2019-02-22T21:21:43.681Z,2.57
2019-02-22T21:24:14.225Z,1.57
2019-02-22T21:26:46.152Z,2.40
2019-02-22T21:29:16.750Z,2.70
2019-02-22T21:31:48.366Z,3.22
2019-02-22T21:34:19.043Z,2.70
2019-02-22T21:36:49.660Z,3.23
2019-02-22T21:39:21.118Z,2.67
2019-02-22T21:41:51.728Z,3.13
2019-02-22T21:44:22.262Z,3.17
2019-02-22T21:46:52.811Z,3.60
2019-02-22T21:49:23.376Z,3.80
2019-02-22T21:51:54.037Z,4.83
2019-02-22T21:54:24.566Z,4.53
2019-02-22T21:56:55.414Z,4.15
2019-02-22T21:59:26.278Z,2.98
2019-02-22T22:01:58.494Z,4.85
2019-02-22T22:04:33.467Z,3.20
2019-02-22T22:07:04.353Z,3.50
2019-02-22T22:09:34.943Z,3.40
2019-02-22T22:12:05.614Z,3.57
2019-02-22T22:14:37.028Z,4.15
2019-02-22T22:17:11.793Z,4.10
2019-02-22T22:19:42.370Z,3.77
2019-02-22T22:22:13.008Z,3.98
2019-02-22T22:24:43.585Z,3.60
2019-02-22T22:27:16.460Z,4.00
2019-02-22T22:29:47.026Z,3.92
2019-02-22T22:32:17.555Z,3.53
2019-02-22T22:34:48.151Z,3.20
2019-02-22T22:37:18.716Z,3.50
2019-02-22T22:39:50.139Z,3.90
2019-02-22T22:42:20.848Z,3.27
2019-02-22T22:44:51.513Z,3.30
2019-02-22T22:47:22.183Z,4.25
2019-02-22T22:49:52.833Z,3.90
2019-02-22T22:52:23.446Z,4.07
2019-02-22T22:54:53.981Z,3.25
2019-02-22T22:57:24.590Z,3.60
2019-02-22T22:59:55.164Z,3.60
2019-02-22T23:02:28.451Z,3.67
2019-02-22T23:04:59.176Z,2.87
2019-02-22T23:07:43.514Z,3.10
2019-02-22T23:10:14.853Z,3.33
2019-02-22T23:12:45.554Z,3.70
2019-02-22T23:15:16.240Z,3.37
2019-02-22T23:17:46.860Z,3.77
2019-02-22T23:20:17.497Z,3.27
2019-02-22T23:22:48.141Z,2.85
2019-02-22T23:25:18.787Z,4.12
2019-02-22T23:27:49.401Z,3.10
2019-02-22T23:30:20.077Z,3.15
2019-02-22T23:32:51.888Z,2.90
2019-02-22T23:35:22.529Z,3.40
2019-02-22T23:37:53.127Z,3.10
2019-02-22T23:40:24.680Z,3.35
2019-02-22T23:42:55.235Z,3.27
2019-02-22T23:45:25.877Z,3.43
2019-02-22T23:47:56.477Z,3.95
2019-02-22T23:50:27.140Z,3.72
2019-02-22T23:52:57.630Z,3.30
2019-02-22T23:55:28.264Z,2.70
2019-02-22T23:57:58.871Z,3.33
